Hovedside
METAR-TAF:

METAR-TAF

Lufthavner :

Berlevåg lufthavn

Berlevåg, Norge

breddegrad: 70-52N, lengdegrad: 029-02E, høyde over havet: 1 m

Gjeldene værobservasjon

Denne rapporten ble laget for 15 minutter siden, klokken 04:50 UTC
Vind 4 kt fra Øst-sørøst
Temperatur 4°C
Luftfuktighet 75%
Trykk 1027 hPa
Sikt 10 km eller mer
Brutte skyer i en høyde av 3000 ft

METAR: ENBV 250450Z 11004KT 9999 BKN030 04/M00 Q1027

Tid: 07:05 (05:05 UTC)

Varsel

Denne rapporten ble laget for 12 timer og 5 minutter siden, klokken 17:00 UTC
Varsel gyldig fra 24. klokken 18 UTC til 24. klokken 21 UTC
Vind 8 kt fra Øst-sørøst
Sikt 10 km eller mer
Få skyer i en høyde av 2000 ft
Brutte skyer i en høyde av 3000 ft

TAF: ENBV 241700Z 2418/2421 12008KT 9999 FEW020 BKN030

Værobservasjoner og værvarsel for over 4000 flyplasser (METAR- og TAF-rapporter).

Tilgjengelige stasjoner er representert av de røde og gule prikkene på kartet.

Hold musepekeren over prikken for å se navnet på stasjonen.

Klikk så for å se værobservasjoner og -varsler.

For å forandre kartet kan du klikke på den grønne knappen med svart kryss for å zoome inn, på den grønne knappen med strek for å zoome ut, eller på de grønne pilene for å se tilstøtende kart.


METAR-TAF: